ADDS METAR Data INFO
IDs: Format: Raw Decoded Include TAF

Data at: 0655 UTC 18 Feb 2018

KAFW 180553Z 00000KT 10SM SCT250 BKN300 06/06 A3017 RMK AO2 SLP220 T00610056 10156 20044 401890044 58004
KAFW 180453Z 00000KT 10SM SCT250 BKN300 07/06 A3018 RMK AO2 SLP224 T00670061
KAFW 180353Z 00000KT 10SM SCT250 BKN300 08/07 A3019 RMK AO2 SLP227 T00830067
KAFW 180253Z 00000KT 10SM BKN250 BKN300 11/07 A3019 RMK AO2 SLP224 T01060067 50013
KAFW 180153Z 00000KT 10SM BKN250 BKN300 11/07 A3019 RMK AO2 SLP226 T01110067
KAFW 180053Z 00000KT 10SM FEW250 BKN300 13/06 A3017 RMK AO2 SLP220 T01280061
KAFW 172353Z 04006KT 10SM SCT250 BKN300 16/06 A3015 RMK AO2 SLP209 T01560061 10189 20139 53016
KAFW 172253Z 03009KT 10SM BKN240 BKN300 17/07 A3013 RMK AO2 SLP203 T01720067
KAFW 172153Z 01010KT 10SM BKN250 BKN300 18/07 A3011 RMK AO2 SLP198 T01780067
KAFW 172053Z 03006KT 10SM BKN200 BKN300 18/07 A3010 RMK AO2 SLP193 T01780072 55004
KAFW 171953Z 34011G18KT 10SM BKN200 BKN300 18/07 A3009 RMK AO2 SLP189 T01830072
KAFW 171853Z 33006KT 10SM FEW120 BKN300 17/09 A3010 RMK AO2 SLP195 T01670089
KAFW 171753Z 24006KT 10SM FEW080 SCT120 BKN300 14/09 A3011 RMK AO2 SLP198 60055 T01390089 10139 20050 58001
KAFW 171653Z 21004KT 10SM FEW080 SCT120 BKN300 11/08 A3013 RMK AO2 SLP205 T01060078
KAFW 171553Z 21008KT 10SM SCT037 BKN060 BKN300 08/07 A3012 RMK AO2 RAE1457 SLP203 P0000 T00830067
KAFW 171453Z 00000KT 10SM -RA OVC039 07/06 A3012 RMK AO2 RAB37 SLP203 P0001 60055 T00670056 53011
KAFW 171425Z 18004KT 10SM SCT024 OVC034 06/05 A3009 RMK AO2 T00560050
KAFW 171353Z 00000KT 10SM SCT024 BKN029 OVC034 05/04 A3009 RMK AO2 RAE53 SLP194 P0017 T00500044
KAFW 171321Z 33006KT 4SM RA BR FEW010 SCT016 OVC026 05/04 A3009 RMK AO2 P0015 T00500044
KAFW 171303Z 31010KT 2SM +RA BR SCT014 BKN026 OVC043 06/04 A3009 RMK AO2 TWR VIS 3 PRESRR P0008 T00560044
KAFW 171253Z 28004KT 1 1/2SM +RA BR FEW031 OVC039 05/04 A3006 RMK AO2 RAE1154B15 PRESRR SLP184 P0037 T00500044
KAFW 171245Z VRB04KT 2 1/2SM +RA BR OVC037 05/04 A3002 RMK AO2 VIS 1 3/4V4 RAE1154B15 P0028 T00500044
KAFW 171228Z 16014KT 1 3/4SM R16L/4000VP6000FT +RA BR SCT022 OVC035 05/03 A3001 RMK AO2 LTG DSNT NE RAE1154B15 PRESFR P0011 T00500033
KAFW 171153Z 00000KT 10SM -RA OVC036 06/03 A3008 RMK AO2 RAB44 SLP190 P0000 60001 70001 T00610028 10067 20056 58012
KAFW 171053Z 31006KT 10SM OVC035 06/02 A3010 RMK AO2 LTG DSNT NW SLP195 OCNL LTGIC DSNT NW CB DSNT NW MOV E T00610022
KAFW 171028Z 31005KT 10SM SCT030 OVC036 06/02 A3011 RMK AO2 T00560022
KAFW 170953Z 32010KT 10SM OVC025 06/03 A3013 RMK AO2 RAB09E51 SLP204 P0001 T00560028
KAFW 170853Z 30007KT 10SM OVC023 07/03 A3012 RMK AO2 SLP201 60000 T00670028 55000
KAFW 170753Z 32003KT 10SM OVC022 07/02 A3008 RMK AO2 SLP190 T00670017
KAFW 170653Z 00000KT 10SM OVC023 07/02 A3009 RMK AO2 RAB0554E05 SLP191 P0000 T00670017
KAFW 170553Z 35004KT 10SM OVC024 07/02 A3012 RMK AO2 RAE35 SLP202 P0000 60000 T00670022 10089 20067 402000067 58022
KAFW 170453Z 05003KT 10SM -RA OVC024 07/01 A3015 RMK AO2 RAB0358E17B37 SLP210 P0000 T00720011
KAFW 170353Z 05006KT 10SM OVC023 07/00 A3017 RMK AO2 RAE0258 SLP218 P0000 T00720000
KAFW 170253Z 05005KT 10SM -RA OVC021 07/00 A3019 RMK AO2 RAB42 SLP225 P0000 60000 T00720000 58014
KAFW 170153Z 01008KT 10SM OVC020 08/M01 A3021 RMK AO2 SLP231 T00781006
KAFW 170119Z 01008KT 10SM BKN024 BKN110 OVC150 08/M01 A3021 RMK AO2 T00781011
KAFW 170053Z 02010KT 10SM FEW110 SCT140 BKN160 OVC300 08/M01 A3021 RMK AO2 SLP232 T00831011
KAFW 162353Z 36012KT 10SM FEW110 BKN160 OVC300 09/M01 A3023 RMK AO2 SLP237 T00891011 10133 20089 58001
KAFW 162253Z 02012KT 10SM SCT110 BKN150 OVC300 10/M01 A3023 RMK AO2 SLP236 T01001011 $
KAFW 162153Z 01013G19KT 10SM BKN110 BKN130 OVC300 12/M01 A3023 RMK AO2 SLP235 T01171006 $
KAFW 162053Z 36015KT 10SM SCT140 BKN300 12/00 A3023 RMK AO2 SLP234 T01220000 56017 $
KAFW 161953Z 01014KT 10SM SCT140 BKN300 12/M01 A3024 RMK AO2 SLP236 T01221006 $